sensor_id;sensor_type;location;lat;lon;timestamp;P1;durP1;ratioP1;P2;durP2;ratioP2
28613;SDS011;15806;53.548;9.964;2023-03-07T00:00:45;27.00;;;9.20;;
28613;SDS011;15806;53.548;9.964;2023-03-07T00:02:26;29.40;;;10.57;;
28613;SDS011;15806;53.548;9.964;2023-03-07T00:04:07;30.27;;;10.70;;
28613;SDS011;15806;53.548;9.964;2023-03-07T00:05:48;30.90;;;11.90;;
28613;SDS011;15806;53.548;9.964;2023-03-07T00:07:28;34.20;;;13.70;;
28613;SDS011;15806;53.548;9.964;2023-03-07T00:09:11;32.53;;;10.80;;
28613;SDS011;15806;53.548;9.964;2023-03-07T00:10:51;37.20;;;11.40;;
28613;SDS011;15806;53.548;9.964;2023-03-07T00:12:32;34.17;;;12.43;;
28613;SDS011;15806;53.548;9.964;2023-03-07T00:14:12;34.93;;;11.17;;
28613;SDS011;15806;53.548;9.964;2023-03-07T00:15:53;37.40;;;13.17;;
28613;SDS011;15806;53.548;9.964;2023-03-07T00:17:37;35.80;;;12.40;;
28613;SDS011;15806;53.548;9.964;2023-03-07T00:19:18;42.60;;;12.43;;
28613;SDS011;15806;53.548;9.964;2023-03-07T00:20:59;43.73;;;14.37;;
28613;SDS011;15806;53.548;9.964;2023-03-07T00:22:42;37.25;;;13.07;;
28613;SDS011;15806;53.548;9.964;2023-03-07T00:24:23;38.28;;;12.90;;
28613;SDS011;15806;53.548;9.964;2023-03-07T00:26:11;23.73;;;8.00;;
28613;SDS011;15806;53.548;9.964;2023-03-07T00:27:53;34.13;;;12.85;;
28613;SDS011;15806;53.548;9.964;2023-03-07T00:29:33;32.93;;;13.07;;
28613;SDS011;15806;53.548;9.964;2023-03-07T00:31:14;35.63;;;12.70;;
28613;SDS011;15806;53.548;9.964;2023-03-07T00:32:55;43.10;;;13.57;;
28613;SDS011;15806;53.548;9.964;2023-03-07T00:34:35;38.07;;;13.73;;
28613;SDS011;15806;53.548;9.964;2023-03-07T00:36:17;38.87;;;15.00;;
28613;SDS011;15806;53.548;9.964;2023-03-07T00:37:59;35.08;;;10.18;;
28613;SDS011;15806;53.548;9.964;2023-03-07T00:39:40;46.00;;;13.93;;
28613;SDS011;15806;53.548;9.964;2023-03-07T00:41:23;36.45;;;13.23;;
28613;SDS011;15806;53.548;9.964;2023-03-07T00:43:04;39.15;;;13.20;;
28613;SDS011;15806;53.548;9.964;2023-03-07T00:44:45;40.40;;;13.97;;
28613;SDS011;15806;53.548;9.964;2023-03-07T00:46:26;47.67;;;14.90;;
28613;SDS011;15806;53.548;9.964;2023-03-07T00:48:06;44.40;;;16.37;;
28613;SDS011;15806;53.548;9.964;2023-03-07T00:49:47;46.53;;;15.20;;
28613;SDS011;15806;53.548;9.964;2023-03-07T00:51:27;47.57;;;15.27;;
28613;SDS011;15806;53.548;9.964;2023-03-07T00:53:08;47.33;;;16.50;;
28613;SDS011;15806;53.548;9.964;2023-03-07T00:54:48;48.97;;;16.97;;
28613;SDS011;15806;53.548;9.964;2023-03-07T00:56:29;27.43;;;10.47;;
28613;SDS011;15806;53.548;9.964;2023-03-07T00:58:09;47.50;;;18.33;;
28613;SDS011;15806;53.548;9.964;2023-03-07T00:59:50;43.53;;;15.53;;
28613;SDS011;15806;53.548;9.964;2023-03-07T01:01:30;50.83;;;17.27;;
28613;SDS011;15806;53.548;9.964;2023-03-07T01:03:11;33.70;;;12.53;;
28613;SDS011;15806;53.548;9.964;2023-03-07T01:04:51;40.30;;;14.43;;
28613;SDS011;15806;53.548;9.964;2023-03-07T01:06:32;40.17;;;14.73;;
28613;SDS011;15806;53.548;9.964;2023-03-07T01:08:13;45.88;;;14.60;;
28613;SDS011;15806;53.548;9.964;2023-03-07T01:09:54;49.50;;;16.73;;
28613;SDS011;15806;53.548;9.964;2023-03-07T01:11:34;43.20;;;13.10;;
28613;SDS011;15806;53.548;9.964;2023-03-07T01:13:16;47.70;;;15.60;;
28613;SDS011;15806;53.548;9.964;2023-03-07T01:14:58;43.78;;;13.75;;
28613;SDS011;15806;53.548;9.964;2023-03-07T01:16:38;43.43;;;14.20;;
28613;SDS011;15806;53.548;9.964;2023-03-07T01:18:19;37.60;;;14.97;;
28613;SDS011;15806;53.548;9.964;2023-03-07T01:19:59;37.07;;;13.93;;
28613;SDS011;15806;53.548;9.964;2023-03-07T01:21:41;48.05;;;16.58;;
28613;SDS011;15806;53.548;9.964;2023-03-07T01:23:22;41.08;;;14.13;;
28613;SDS011;15806;53.548;9.964;2023-03-07T01:25:03;43.33;;;16.10;;
28613;SDS011;15806;53.548;9.964;2023-03-07T01:26:43;42.25;;;14.73;;
28613;SDS011;15806;53.548;9.964;2023-03-07T01:28:24;41.23;;;17.90;;
28613;SDS011;15806;53.548;9.964;2023-03-07T01:30:05;26.13;;;10.63;;
28613;SDS011;15806;53.548;9.964;2023-03-07T01:31:46;41.92;;;14.40;;
28613;SDS011;15806;53.548;9.964;2023-03-07T01:33:27;38.07;;;13.33;;
28613;SDS011;15806;53.548;9.964;2023-03-07T01:35:07;40.77;;;13.57;;
28613;SDS011;15806;53.548;9.964;2023-03-07T01:36:48;35.73;;;12.20;;
28613;SDS011;15806;53.548;9.964;2023-03-07T01:38:28;32.10;;;11.63;;
28613;SDS011;15806;53.548;9.964;2023-03-07T01:40:09;36.77;;;12.30;;
28613;SDS011;15806;53.548;9.964;2023-03-07T01:41:50;40.38;;;13.63;;
28613;SDS011;15806;53.548;9.964;2023-03-07T01:43:32;26.87;;;9.63;;
28613;SDS011;15806;53.548;9.964;2023-03-07T01:46:56;41.23;;;13.87;;
28613;SDS011;15806;53.548;9.964;2023-03-07T01:48:37;32.92;;;11.20;;
28613;SDS011;15806;53.548;9.964;2023-03-07T01:50:18;39.17;;;13.17;;
28613;SDS011;15806;53.548;9.964;2023-03-07T01:53:45;35.33;;;11.85;;
28613;SDS011;15806;53.548;9.964;2023-03-07T01:55:30;39.15;;;14.48;;
28613;SDS011;15806;53.548;9.964;2023-03-07T01:57:12;31.45;;;11.82;;
28613;SDS011;15806;53.548;9.964;2023-03-07T01:58:54;41.22;;;13.88;;
28613;SDS011;15806;53.548;9.964;2023-03-07T02:00:35;36.53;;;13.20;;
28613;SDS011;15806;53.548;9.964;2023-03-07T02:02:16;37.07;;;11.97;;
28613;SDS011;15806;53.548;9.964;2023-03-07T02:05:46;30.50;;;11.27;;
28613;SDS011;15806;53.548;9.964;2023-03-07T02:07:34;34.97;;;10.98;;
28613;SDS011;15806;53.548;9.964;2023-03-07T02:09:20;39.83;;;14.80;;
28613;SDS011;15806;53.548;9.964;2023-03-07T02:11:03;39.03;;;13.50;;
28613;SDS011;15806;53.548;9.964;2023-03-07T02:14:25;33.47;;;12.68;;
28613;SDS011;15806;53.548;9.964;2023-03-07T02:16:05;38.97;;;13.73;;
28613;SDS011;15806;53.548;9.964;2023-03-07T02:17:46;36.80;;;13.25;;
28613;SDS011;15806;53.548;9.964;2023-03-07T02:19:29;28.00;;;10.93;;
28613;SDS011;15806;53.548;9.964;2023-03-07T02:26:44;42.88;;;15.10;;
28613;SDS011;15806;53.548;9.964;2023-03-07T02:28:12;36.72;;;12.02;;
28613;SDS011;15806;53.548;9.964;2023-03-07T02:29:54;23.00;;;9.93;;
28613;SDS011;15806;53.548;9.964;2023-03-07T02:31:35;31.20;;;10.87;;
28613;SDS011;15806;53.548;9.964;2023-03-07T02:33:15;26.37;;;9.43;;
28613;SDS011;15806;53.548;9.964;2023-03-07T02:34:56;37.20;;;12.30;;
28613;SDS011;15806;53.548;9.964;2023-03-07T02:36:36;38.07;;;11.97;;
28613;SDS011;15806;53.548;9.964;2023-03-07T02:38:17;64.47;;;13.07;;
28613;SDS011;15806;53.548;9.964;2023-03-07T02:39:58;41.63;;;13.40;;
28613;SDS011;15806;53.548;9.964;2023-03-07T02:41:43;44.92;;;14.40;;
28613;SDS011;15806;53.548;9.964;2023-03-07T02:43:24;30.13;;;11.93;;
28613;SDS011;15806;53.548;9.964;2023-03-07T02:45:06;38.00;;;14.80;;
28613;SDS011;15806;53.548;9.964;2023-03-07T02:46:49;37.67;;;13.10;;
28613;SDS011;15806;53.548;9.964;2023-03-07T02:48:29;37.47;;;14.50;;
28613;SDS011;15806;53.548;9.964;2023-03-07T02:50:11;34.77;;;12.27;;
28613;SDS011;15806;53.548;9.964;2023-03-07T02:51:52;40.67;;;13.35;;
28613;SDS011;15806;53.548;9.964;2023-03-07T02:53:33;45.53;;;13.70;;
28613;SDS011;15806;53.548;9.964;2023-03-07T02:55:13;35.63;;;12.10;;
28613;SDS011;15806;53.548;9.964;2023-03-07T02:56:54;40.60;;;12.63;;
28613;SDS011;15806;53.548;9.964;2023-03-07T02:58:35;32.03;;;12.17;;
28613;SDS011;15806;53.548;9.964;2023-03-07T03:00:15;36.23;;;13.37;;
28613;SDS011;15806;53.548;9.964;2023-03-07T03:01:56;41.55;;;15.23;;
28613;SDS011;15806;53.548;9.964;2023-03-07T03:03:37;42.85;;;14.68;;
28613;SDS011;15806;53.548;9.964;2023-03-07T03:05:17;38.90;;;13.20;;
28613;SDS011;15806;53.548;9.964;2023-03-07T03:06:58;43.77;;;14.43;;
28613;SDS011;15806;53.548;9.964;2023-03-07T03:08:38;36.07;;;12.43;;
28613;SDS011;15806;53.548;9.964;2023-03-07T03:10:19;39.50;;;15.07;;
28613;SDS011;15806;53.548;9.964;2023-03-07T03:11:59;39.97;;;12.50;;
28613;SDS011;15806;53.548;9.964;2023-03-07T03:13:40;38.37;;;12.70;;
28613;SDS011;15806;53.548;9.964;2023-03-07T03:15:20;37.87;;;11.47;;
28613;SDS011;15806;53.548;9.964;2023-03-07T03:17:01;37.13;;;12.97;;
28613;SDS011;15806;53.548;9.964;2023-03-07T03:18:41;37.27;;;12.80;;
28613;SDS011;15806;53.548;9.964;2023-03-07T03:20:22;43.27;;;13.33;;
28613;SDS011;15806;53.548;9.964;2023-03-07T03:22:02;34.27;;;11.77;;
28613;SDS011;15806;53.548;9.964;2023-03-07T03:23:43;36.93;;;12.47;;
28613;SDS011;15806;53.548;9.964;2023-03-07T03:25:23;34.80;;;12.07;;
28613;SDS011;15806;53.548;9.964;2023-03-07T03:27:04;38.17;;;13.53;;
28613;SDS011;15806;53.548;9.964;2023-03-07T03:28:45;40.50;;;12.80;;
28613;SDS011;15806;53.548;9.964;2023-03-07T03:30:25;31.83;;;10.80;;
28613;SDS011;15806;53.548;9.964;2023-03-07T03:32:06;32.08;;;10.10;;
28613;SDS011;15806;53.548;9.964;2023-03-07T03:33:47;27.50;;;11.10;;
28613;SDS011;15806;53.548;9.964;2023-03-07T03:35:27;32.73;;;10.23;;
28613;SDS011;15806;53.548;9.964;2023-03-07T03:37:08;33.63;;;11.90;;
28613;SDS011;15806;53.548;9.964;2023-03-07T03:38:48;30.60;;;12.10;;
28613;SDS011;15806;53.548;9.964;2023-03-07T03:40:30;33.45;;;11.57;;
28613;SDS011;15806;53.548;9.964;2023-03-07T03:42:11;30.70;;;11.90;;
28613;SDS011;15806;53.548;9.964;2023-03-07T03:43:51;28.20;;;9.70;;
28613;SDS011;15806;53.548;9.964;2023-03-07T03:45:32;28.95;;;10.55;;
28613;SDS011;15806;53.548;9.964;2023-03-07T03:47:13;33.17;;;10.97;;
28613;SDS011;15806;53.548;9.964;2023-03-07T03:48:53;33.03;;;12.33;;
28613;SDS011;15806;53.548;9.964;2023-03-07T03:50:34;18.73;;;8.02;;
28613;SDS011;15806;53.548;9.964;2023-03-07T03:52:15;26.63;;;10.73;;
28613;SDS011;15806;53.548;9.964;2023-03-07T03:53:55;20.93;;;9.27;;
28613;SDS011;15806;53.548;9.964;2023-03-07T03:55:36;34.13;;;11.27;;
28613;SDS011;15806;53.548;9.964;2023-03-07T03:57:16;33.30;;;12.70;;
28613;SDS011;15806;53.548;9.964;2023-03-07T03:58:57;24.37;;;9.10;;
28613;SDS011;15806;53.548;9.964;2023-03-07T04:00:37;31.07;;;9.70;;
28613;SDS011;15806;53.548;9.964;2023-03-07T04:02:18;21.07;;;8.77;;
28613;SDS011;15806;53.548;9.964;2023-03-07T04:03:58;25.27;;;10.00;;
28613;SDS011;15806;53.548;9.964;2023-03-07T04:05:39;26.67;;;10.20;;
28613;SDS011;15806;53.548;9.964;2023-03-07T04:07:19;37.93;;;11.70;;
28613;SDS011;15806;53.548;9.964;2023-03-07T04:09:00;29.03;;;10.73;;
28613;SDS011;15806;53.548;9.964;2023-03-07T04:10:41;26.23;;;10.23;;
28613;SDS011;15806;53.548;9.964;2023-03-07T04:12:22;25.13;;;10.10;;
28613;SDS011;15806;53.548;9.964;2023-03-07T04:14:03;27.30;;;10.97;;
28613;SDS011;15806;53.548;9.964;2023-03-07T04:15:43;28.27;;;10.33;;
28613;SDS011;15806;53.548;9.964;2023-03-07T04:17:24;24.20;;;9.77;;
28613;SDS011;15806;53.548;9.964;2023-03-07T04:19:04;23.03;;;9.67;;
28613;SDS011;15806;53.548;9.964;2023-03-07T04:20:45;29.57;;;10.40;;
28613;SDS011;15806;53.548;9.964;2023-03-07T04:24:07;19.10;;;8.15;;
28613;SDS011;15806;53.548;9.964;2023-03-07T04:25:48;21.20;;;9.15;;
28613;SDS011;15806;53.548;9.964;2023-03-07T04:27:33;19.55;;;7.88;;
28613;SDS011;15806;53.548;9.964;2023-03-07T04:29:14;18.53;;;7.57;;
28613;SDS011;15806;53.548;9.964;2023-03-07T04:30:55;18.60;;;7.63;;
28613;SDS011;15806;53.548;9.964;2023-03-07T04:32:35;13.93;;;5.57;;
28613;SDS011;15806;53.548;9.964;2023-03-07T04:34:16;15.90;;;5.60;;
28613;SDS011;15806;53.548;9.964;2023-03-07T04:35:56;16.70;;;7.03;;
28613;SDS011;15806;53.548;9.964;2023-03-07T04:37:37;13.87;;;5.57;;
28613;SDS011;15806;53.548;9.964;2023-03-07T04:39:17;19.90;;;6.10;;
28613;SDS011;15806;53.548;9.964;2023-03-07T04:40:58;19.73;;;7.47;;
28613;SDS011;15806;53.548;9.964;2023-03-07T04:42:38;18.10;;;6.27;;
28613;SDS011;15806;53.548;9.964;2023-03-07T04:44:19;10.77;;;4.73;;
28613;SDS011;15806;53.548;9.964;2023-03-07T04:45:59;10.40;;;4.30;;
28613;SDS011;15806;53.548;9.964;2023-03-07T04:47:40;14.00;;;5.22;;
28613;SDS011;15806;53.548;9.964;2023-03-07T04:49:20;12.50;;;5.50;;
28613;SDS011;15806;53.548;9.964;2023-03-07T04:51:01;10.20;;;4.80;;
28613;SDS011;15806;53.548;9.964;2023-03-07T04:52:41;14.00;;;6.17;;
28613;SDS011;15806;53.548;9.964;2023-03-07T04:54:22;17.00;;;4.93;;
28613;SDS011;15806;53.548;9.964;2023-03-07T04:56:04;13.10;;;5.03;;
28613;SDS011;15806;53.548;9.964;2023-03-07T04:57:46;9.32;;;3.78;;
28613;SDS011;15806;53.548;9.964;2023-03-07T04:59:26;10.40;;;3.37;;
28613;SDS011;15806;53.548;9.964;2023-03-07T05:01:07;9.60;;;2.93;;
28613;SDS011;15806;53.548;9.964;2023-03-07T05:02:47;9.03;;;3.80;;
28613;SDS011;15806;53.548;9.964;2023-03-07T05:04:28;9.37;;;2.70;;
28613;SDS011;15806;53.548;9.964;2023-03-07T05:06:12;12.17;;;2.50;;
28613;SDS011;15806;53.548;9.964;2023-03-07T05:07:54;5.60;;;2.53;;
28613;SDS011;15806;53.548;9.964;2023-03-07T05:09:34;8.07;;;3.87;;
28613;SDS011;15806;53.548;9.964;2023-03-07T05:11:15;10.53;;;2.73;;
28613;SDS011;15806;53.548;9.964;2023-03-07T05:12:55;10.03;;;2.33;;
28613;SDS011;15806;53.548;9.964;2023-03-07T05:14:36;11.83;;;2.83;;
28613;SDS011;15806;53.548;9.964;2023-03-07T05:16:16;8.90;;;2.57;;
28613;SDS011;15806;53.548;9.964;2023-03-07T05:17:57;6.80;;;1.80;;
28613;SDS011;15806;53.548;9.964;2023-03-07T05:19:37;14.87;;;3.50;;
28613;SDS011;15806;53.548;9.964;2023-03-07T05:21:18;5.87;;;1.90;;
28613;SDS011;15806;53.548;9.964;2023-03-07T05:22:58;2.63;;;1.37;;
28613;SDS011;15806;53.548;9.964;2023-03-07T05:24:39;6.47;;;1.60;;
28613;SDS011;15806;53.548;9.964;2023-03-07T05:26:20;11.70;;;1.80;;
28613;SDS011;15806;53.548;9.964;2023-03-07T05:28:00;6.47;;;1.70;;
28613;SDS011;15806;53.548;9.964;2023-03-07T05:29:41;6.27;;;1.43;;
28613;SDS011;15806;53.548;9.964;2023-03-07T05:31:21;14.77;;;2.10;;
28613;SDS011;15806;53.548;9.964;2023-03-07T05:33:02;6.93;;;1.60;;
28613;SDS011;15806;53.548;9.964;2023-03-07T05:34:43;3.77;;;1.93;;
28613;SDS011;15806;53.548;9.964;2023-03-07T05:36:23;5.43;;;1.77;;
28613;SDS011;15806;53.548;9.964;2023-03-07T05:38:04;10.20;;;1.43;;
28613;SDS011;15806;53.548;9.964;2023-03-07T05:39:44;4.53;;;0.87;;
28613;SDS011;15806;53.548;9.964;2023-03-07T05:41:25;8.30;;;2.40;;
28613;SDS011;15806;53.548;9.964;2023-03-07T05:43:05;4.00;;;0.90;;
28613;SDS011;15806;53.548;9.964;2023-03-07T05:44:46;3.80;;;1.57;;
28613;SDS011;15806;53.548;9.964;2023-03-07T05:46:26;4.27;;;1.43;;
28613;SDS011;15806;53.548;9.964;2023-03-07T05:48:07;5.13;;;1.10;;
28613;SDS011;15806;53.548;9.964;2023-03-07T05:49:47;4.87;;;1.30;;
28613;SDS011;15806;53.548;9.964;2023-03-07T05:51:28;5.60;;;1.97;;
28613;SDS011;15806;53.548;9.964;2023-03-07T05:53:08;7.17;;;0.70;;
28613;SDS011;15806;53.548;9.964;2023-03-07T05:54:49;2.00;;;0.80;;
28613;SDS011;15806;53.548;9.964;2023-03-07T05:56:29;9.17;;;1.37;;
28613;SDS011;15806;53.548;9.964;2023-03-07T05:58:11;6.82;;;1.17;;
28613;SDS011;15806;53.548;9.964;2023-03-07T05:59:51;3.93;;;1.33;;
28613;SDS011;15806;53.548;9.964;2023-03-07T06:01:32;10.43;;;1.43;;
28613;SDS011;15806;53.548;9.964;2023-03-07T06:03:13;6.88;;;0.95;;
28613;SDS011;15806;53.548;9.964;2023-03-07T06:04:53;6.73;;;1.37;;
28613;SDS011;15806;53.548;9.964;2023-03-07T06:06:34;5.60;;;1.00;;
28613;SDS011;15806;53.548;9.964;2023-03-07T06:08:15;7.03;;;0.80;;
28613;SDS011;15806;53.548;9.964;2023-03-07T06:09:55;8.30;;;0.87;;
28613;SDS011;15806;53.548;9.964;2023-03-07T06:11:36;3.00;;;1.03;;
28613;SDS011;15806;53.548;9.964;2023-03-07T06:13:17;4.77;;;1.00;;
28613;SDS011;15806;53.548;9.964;2023-03-07T06:15:00;4.63;;;0.85;;
28613;SDS011;15806;53.548;9.964;2023-03-07T06:16:40;3.70;;;0.83;;
28613;SDS011;15806;53.548;9.964;2023-03-07T06:18:21;10.77;;;1.10;;
28613;SDS011;15806;53.548;9.964;2023-03-07T06:20:03;7.60;;;1.55;;
28613;SDS011;15806;53.548;9.964;2023-03-07T06:21:44;2.85;;;1.05;;
28613;SDS011;15806;53.548;9.964;2023-03-07T06:23:25;7.03;;;1.67;;
28613;SDS011;15806;53.548;9.964;2023-03-07T06:25:07;7.55;;;0.80;;
28613;SDS011;15806;53.548;9.964;2023-03-07T06:26:48;7.10;;;2.28;;
28613;SDS011;15806;53.548;9.964;2023-03-07T06:28:28;4.83;;;0.77;;
28613;SDS011;15806;53.548;9.964;2023-03-07T06:30:10;4.13;;;0.50;;
28613;SDS011;15806;53.548;9.964;2023-03-07T06:31:51;1.52;;;0.20;;
28613;SDS011;15806;53.548;9.964;2023-03-07T06:33:31;5.00;;;0.70;;
28613;SDS011;15806;53.548;9.964;2023-03-07T06:35:12;15.87;;;2.03;;
28613;SDS011;15806;53.548;9.964;2023-03-07T06:36:52;2.33;;;0.30;;
28613;SDS011;15806;53.548;9.964;2023-03-07T06:38:33;9.87;;;1.13;;
28613;SDS011;15806;53.548;9.964;2023-03-07T06:40:13;10.97;;;1.30;;
28613;SDS011;15806;53.548;9.964;2023-03-07T06:41:54;2.83;;;0.70;;
28613;SDS011;15806;53.548;9.964;2023-03-07T06:43:35;4.13;;;0.77;;
28613;SDS011;15806;53.548;9.964;2023-03-07T06:45:15;3.90;;;0.60;;
28613;SDS011;15806;53.548;9.964;2023-03-07T06:46:56;3.23;;;0.60;;
28613;SDS011;15806;53.548;9.964;2023-03-07T06:48:36;5.77;;;1.13;;
28613;SDS011;15806;53.548;9.964;2023-03-07T06:50:18;2.80;;;0.23;;
28613;SDS011;15806;53.548;9.964;2023-03-07T06:51:58;7.63;;;0.68;;
28613;SDS011;15806;53.548;9.964;2023-03-07T06:53:39;4.13;;;0.90;;
28613;SDS011;15806;53.548;9.964;2023-03-07T06:55:19;8.37;;;0.70;;
28613;SDS011;15806;53.548;9.964;2023-03-07T06:57:00;7.33;;;0.70;;
28613;SDS011;15806;53.548;9.964;2023-03-07T06:58:40;5.03;;;0.83;;
28613;SDS011;15806;53.548;9.964;2023-03-07T07:00:21;1.87;;;0.30;;
28613;SDS011;15806;53.548;9.964;2023-03-07T07:02:02;1.30;;;0.53;;
28613;SDS011;15806;53.548;9.964;2023-03-07T07:03:43;6.72;;;0.70;;
28613;SDS011;15806;53.548;9.964;2023-03-07T07:05:23;4.60;;;1.23;;
28613;SDS011;15806;53.548;9.964;2023-03-07T07:07:04;4.90;;;0.57;;
28613;SDS011;15806;53.548;9.964;2023-03-07T07:08:45;5.83;;;0.80;;
28613;SDS011;15806;53.548;9.964;2023-03-07T07:10:28;5.00;;;0.85;;
28613;SDS011;15806;53.548;9.964;2023-03-07T07:12:09;4.17;;;0.87;;
28613;SDS011;15806;53.548;9.964;2023-03-07T07:13:49;4.67;;;0.40;;
28613;SDS011;15806;53.548;9.964;2023-03-07T07:15:30;3.67;;;0.63;;
28613;SDS011;15806;53.548;9.964;2023-03-07T07:17:11;3.53;;;0.60;;
28613;SDS011;15806;53.548;9.964;2023-03-07T07:18:52;5.25;;;0.50;;
28613;SDS011;15806;53.548;9.964;2023-03-07T07:20:32;4.40;;;0.57;;
28613;SDS011;15806;53.548;9.964;2023-03-07T07:22:14;7.30;;;0.70;;
28613;SDS011;15806;53.548;9.964;2023-03-07T07:23:55;4.18;;;0.40;;
28613;SDS011;15806;53.548;9.964;2023-03-07T07:27:17;2.70;;;0.40;;
28613;SDS011;15806;53.548;9.964;2023-03-07T07:28:58;8.60;;;1.47;;
28613;SDS011;15806;53.548;9.964;2023-03-07T07:30:38;9.70;;;0.93;;
28613;SDS011;15806;53.548;9.964;2023-03-07T07:32:19;3.90;;;0.40;;
28613;SDS011;15806;53.548;9.964;2023-03-07T07:33:59;1.43;;;0.40;;
28613;SDS011;15806;53.548;9.964;2023-03-07T07:35:43;3.30;;;0.80;;
28613;SDS011;15806;53.548;9.964;2023-03-07T07:37:24;5.43;;;0.60;;
28613;SDS011;15806;53.548;9.964;2023-03-07T07:39:06;2.80;;;0.37;;
28613;SDS011;15806;53.548;9.964;2023-03-07T07:40:47;5.28;;;0.63;;
28613;SDS011;15806;53.548;9.964;2023-03-07T07:42:27;8.73;;;0.60;;
28613;SDS011;15806;53.548;9.964;2023-03-07T07:44:08;4.40;;;0.67;;
28613;SDS011;15806;53.548;9.964;2023-03-07T07:45:49;4.50;;;0.43;;
28613;SDS011;15806;53.548;9.964;2023-03-07T07:47:30;5.33;;;0.43;;
28613;SDS011;15806;53.548;9.964;2023-03-07T07:49:10;5.27;;;0.67;;
28613;SDS011;15806;53.548;9.964;2023-03-07T07:50:52;2.92;;;0.60;;
28613;SDS011;15806;53.548;9.964;2023-03-07T07:52:32;6.90;;;0.50;;
28613;SDS011;15806;53.548;9.964;2023-03-07T07:54:13;5.97;;;0.80;;
28613;SDS011;15806;53.548;9.964;2023-03-07T07:55:53;4.60;;;0.90;;
28613;SDS011;15806;53.548;9.964;2023-03-07T07:57:34;5.43;;;0.50;;
28613;SDS011;15806;53.548;9.964;2023-03-07T07:59:14;5.53;;;1.83;;
28613;SDS011;15806;53.548;9.964;2023-03-07T08:00:55;1.73;;;0.70;;
28613;SDS011;15806;53.548;9.964;2023-03-07T08:02:36;5.63;;;0.40;;
28613;SDS011;15806;53.548;9.964;2023-03-07T08:04:17;6.18;;;0.80;;
28613;SDS011;15806;53.548;9.964;2023-03-07T08:05:58;6.00;;;0.90;;
28613;SDS011;15806;53.548;9.964;2023-03-07T08:07:38;4.00;;;1.07;;
28613;SDS011;15806;53.548;9.964;2023-03-07T08:09:19;4.83;;;0.60;;
28613;SDS011;15806;53.548;9.964;2023-03-07T08:10:59;4.77;;;0.87;;
28613;SDS011;15806;53.548;9.964;2023-03-07T08:12:43;5.70;;;0.50;;
28613;SDS011;15806;53.548;9.964;2023-03-07T08:14:26;2.30;;;0.70;;
28613;SDS011;15806;53.548;9.964;2023-03-07T08:16:17;6.43;;;0.50;;
28613;SDS011;15806;53.548;9.964;2023-03-07T08:17:58;6.25;;;0.80;;
28613;SDS011;15806;53.548;9.964;2023-03-07T08:19:39;5.20;;;0.63;;
28613;SDS011;15806;53.548;9.964;2023-03-07T08:21:20;7.27;;;0.83;;
28613;SDS011;15806;53.548;9.964;2023-03-07T08:23:00;5.35;;;0.68;;
28613;SDS011;15806;53.548;9.964;2023-03-07T08:24:41;4.50;;;0.60;;
28613;SDS011;15806;53.548;9.964;2023-03-07T08:26:22;2.03;;;0.40;;
28613;SDS011;15806;53.548;9.964;2023-03-07T08:28:03;1.95;;;0.65;;
28613;SDS011;15806;53.548;9.964;2023-03-07T08:29:46;8.47;;;1.20;;
28613;SDS011;15806;53.548;9.964;2023-03-07T08:31:27;5.95;;;0.65;;
28613;SDS011;15806;53.548;9.964;2023-03-07T08:33:08;7.37;;;0.70;;
28613;SDS011;15806;53.548;9.964;2023-03-07T08:34:48;14.60;;;1.43;;
28613;SDS011;15806;53.548;9.964;2023-03-07T08:36:29;4.53;;;0.63;;
28613;SDS011;15806;53.548;9.964;2023-03-07T08:38:10;5.27;;;0.57;;
28613;SDS011;15806;53.548;9.964;2023-03-07T08:39:50;7.30;;;0.90;;
28613;SDS011;15806;53.548;9.964;2023-03-07T08:41:31;2.73;;;0.40;;
28613;SDS011;15806;53.548;9.964;2023-03-07T08:43:11;4.27;;;0.80;;
28613;SDS011;15806;53.548;9.964;2023-03-07T08:44:52;11.40;;;1.10;;
28613;SDS011;15806;53.548;9.964;2023-03-07T08:46:32;7.87;;;0.60;;
28613;SDS011;15806;53.548;9.964;2023-03-07T08:48:13;5.30;;;0.87;;
28613;SDS011;15806;53.548;9.964;2023-03-07T08:49:53;8.40;;;1.50;;
28613;SDS011;15806;53.548;9.964;2023-03-07T08:51:34;5.83;;;0.73;;
28613;SDS011;15806;53.548;9.964;2023-03-07T08:53:14;5.93;;;0.60;;
28613;SDS011;15806;53.548;9.964;2023-03-07T08:54:55;6.07;;;0.85;;
28613;SDS011;15806;53.548;9.964;2023-03-07T08:56:36;6.43;;;0.50;;
28613;SDS011;15806;53.548;9.964;2023-03-07T08:58:16;6.03;;;0.60;;
28613;SDS011;15806;53.548;9.964;2023-03-07T08:59:57;9.60;;;0.83;;
28613;SDS011;15806;53.548;9.964;2023-03-07T09:01:37;2.63;;;0.97;;
28613;SDS011;15806;53.548;9.964;2023-03-07T09:03:18;8.50;;;0.47;;
28613;SDS011;15806;53.548;9.964;2023-03-07T09:04:58;7.40;;;1.17;;
28613;SDS011;15806;53.548;9.964;2023-03-07T09:06:39;3.57;;;0.60;;
28613;SDS011;15806;53.548;9.964;2023-03-07T09:08:19;7.67;;;1.17;;
28613;SDS011;15806;53.548;9.964;2023-03-07T09:10:00;4.40;;;0.67;;
28613;SDS011;15806;53.548;9.964;2023-03-07T09:11:40;9.27;;;2.47;;
28613;SDS011;15806;53.548;9.964;2023-03-07T09:13:21;10.50;;;0.47;;
28613;SDS011;15806;53.548;9.964;2023-03-07T09:15:02;9.50;;;1.53;;
28613;SDS011;15806;53.548;9.964;2023-03-07T09:16:42;5.40;;;0.70;;
28613;SDS011;15806;53.548;9.964;2023-03-07T09:18:23;5.93;;;1.13;;
28613;SDS011;15806;53.548;9.964;2023-03-07T09:20:04;4.23;;;0.63;;
28613;SDS011;15806;53.548;9.964;2023-03-07T09:21:46;6.57;;;0.80;;
28613;SDS011;15806;53.548;9.964;2023-03-07T09:23:26;5.07;;;0.80;;
28613;SDS011;15806;53.548;9.964;2023-03-07T09:25:07;6.37;;;0.87;;
28613;SDS011;15806;53.548;9.964;2023-03-07T09:26:48;11.90;;;2.17;;
28613;SDS011;15806;53.548;9.964;2023-03-07T09:28:28;9.00;;;1.20;;
28613;SDS011;15806;53.548;9.964;2023-03-07T09:30:09;5.47;;;0.67;;
28613;SDS011;15806;53.548;9.964;2023-03-07T09:31:50;11.20;;;1.63;;
28613;SDS011;15806;53.548;9.964;2023-03-07T09:33:31;5.27;;;0.87;;
28613;SDS011;15806;53.548;9.964;2023-03-07T09:35:11;5.30;;;0.60;;
28613;SDS011;15806;53.548;9.964;2023-03-07T09:36:52;6.30;;;0.67;;
28613;SDS011;15806;53.548;9.964;2023-03-07T09:38:32;2.17;;;0.60;;
28613;SDS011;15806;53.548;9.964;2023-03-07T09:40:17;10.07;;;1.35;;
28613;SDS011;15806;53.548;9.964;2023-03-07T09:42:04;2.03;;;0.47;;
28613;SDS011;15806;53.548;9.964;2023-03-07T09:44:00;5.55;;;1.00;;
28613;SDS011;15806;53.548;9.964;2023-03-07T09:49:17;8.68;;;0.63;;
28613;SDS011;15806;53.548;9.964;2023-03-07T09:52:55;10.32;;;0.73;;
28613;SDS011;15806;53.548;9.964;2023-03-07T09:54:45;3.20;;;0.50;;
28613;SDS011;15806;53.548;9.964;2023-03-07T09:56:38;5.20;;;0.50;;
28613;SDS011;15806;53.548;9.964;2023-03-07T09:58:35;8.55;;;0.80;;
28613;SDS011;15806;53.548;9.964;2023-03-07T10:04:44;14.93;;;2.60;;
28613;SDS011;15806;53.548;9.964;2023-03-07T10:06:27;3.63;;;1.02;;
28613;SDS011;15806;53.548;9.964;2023-03-07T10:08:32;3.50;;;0.93;;
28613;SDS011;15806;53.548;9.964;2023-03-07T10:10:16;3.42;;;0.60;;
28613;SDS011;15806;53.548;9.964;2023-03-07T10:16:23;3.28;;;0.73;;
28613;SDS011;15806;53.548;9.964;2023-03-07T10:18:16;4.28;;;0.65;;
28613;SDS011;15806;53.548;9.964;2023-03-07T10:20:11;2.05;;;0.52;;
28613;SDS011;15806;53.548;9.964;2023-03-07T10:24:07;10.13;;;0.68;;
28613;SDS011;15806;53.548;9.964;2023-03-07T10:27:45;6.10;;;0.45;;
28613;SDS011;15806;53.548;9.964;2023-03-07T10:29:27;4.15;;;0.30;;
28613;SDS011;15806;53.548;9.964;2023-03-07T10:31:32;4.05;;;0.43;;
28613;SDS011;15806;53.548;9.964;2023-03-07T10:33:17;2.90;;;0.50;;
28613;SDS011;15806;53.548;9.964;2023-03-07T10:35:21;7.07;;;0.40;;
28613;SDS011;15806;53.548;9.964;2023-03-07T10:37:24;6.20;;;0.60;;